Time;durP1;ratioP1;P1;durP2;ratioP2;P2;SDS_P1;SDS_P2;PMS_P1;PMS_P2;Temp;Humidity;BMP_temperature;BMP_pressure;BME280_temperature;BME280_humidity;BME280_pressure;Samples;Min_cycle;Max_cycle;Signal;HPM_P1;HPM_P2
2022/02/12 00:00:27;;;;;;;86.10;44.65;;;;;;;2.84;64.74;101716.64;1698247;84;27594;-61
2022/02/12 00:02:56;;;;;;;81.02;40.67;;;;;;;2.83;64.60;101713.12;1698106;84;25769;-61
2022/02/12 00:05:25;;;;;;;73.45;39.33;;;;;;;2.85;64.62;101728.55;1698137;84;25769;-62
2022/02/12 00:07:54;;;;;;;74.85;39.63;;;;;;;2.90;64.65;101724.38;1684438;84;25796;-62
2022/02/12 00:10:22;;;;;;;75.40;39.85;;;;;;;2.91;65.67;101720.32;1692607;84;25766;-61
2022/02/12 00:12:49;;;;;;;84.90;42.30;;;;;;;2.92;65.27;101736.67;1692455;83;28147;-61
2022/02/12 00:15:16;;;;;;;77.40;39.00;;;;;;;2.92;65.57;101738.00;1692338;84;25737;-61
2022/02/12 00:17:44;;;;;;;79.32;40.45;;;;;;;2.96;65.85;101735.59;1693261;84;25772;-61
2022/02/12 00:20:13;;;;;;;69.35;35.05;;;;;;;3.01;65.80;101736.73;1698559;84;26490;-61
2022/02/12 00:22:41;;;;;;;62.50;33.73;;;;;;;3.07;66.00;101739.61;1698305;84;25734;-61
2022/02/12 00:25:09;;;;;;;65.35;31.87;;;;;;;3.15;66.03;101738.83;1695969;84;28210;-61
2022/02/12 00:27:37;;;;;;;52.33;26.62;;;;;;;3.24;66.27;101750.41;1693664;84;25835;-62
2022/02/12 00:30:06;;;;;;;36.85;21.80;;;;;;;3.37;66.60;101752.56;1693334;84;25685;-62
2022/02/12 00:32:34;;;;;;;39.73;18.00;;;;;;;3.55;67.20;101752.22;1692523;84;25813;-62
2022/02/12 00:35:01;;;;;;;34.88;17.12;;;;;;;3.71;67.89;101750.64;1692371;83;25804;-62
2022/02/12 00:37:29;;;;;;;30.60;15.80;;;;;;;3.90;68.19;101752.45;1692380;84;28669;-62
2022/02/12 00:39:58;;;;;;;31.27;14.65;;;;;;;4.08;67.97;101764.94;1684398;85;25794;-61
2022/02/12 00:42:26;;;;;;;21.82;11.65;;;;;;;4.27;68.34;101763.25;1684802;83;25994;-62
2022/02/12 00:44:53;;;;;;;20.97;12.30;;;;;;;4.47;68.99;101763.64;1687549;83;26597;-63
2022/02/12 00:47:21;;;;;;;21.30;11.43;;;;;;;4.65;69.17;101761.92;1709769;83;25945;-62
2022/02/12 00:49:48;;;;;;;21.87;11.97;;;;;;;4.81;68.98;101751.36;1692863;83;27524;-62
2022/02/12 00:52:15;;;;;;;18.67;11.20;;;;;;;4.91;68.75;101758.46;1691629;84;25701;-62
2022/02/12 00:54:42;;;;;;;18.65;11.22;;;;;;;5.00;69.06;101757.53;1691954;83;25778;-62
2022/02/12 00:57:09;;;;;;;21.07;11.12;;;;;;;5.08;68.76;101751.83;1691720;84;25807;-62
2022/02/12 00:59:37;;;;;;;23.05;11.18;;;;;;;5.13;68.52;101752.93;1671571;84;25766;-62
2022/02/12 01:02:04;;;;;;;16.80;10.45;;;;;;;5.17;68.59;101762.48;1691162;83;28275;-62
2022/02/12 01:04:31;;;;;;;18.27;10.60;;;;;;;5.22;68.48;101760.47;1690888;83;25749;-62
2022/02/12 01:06:58;;;;;;;15.80;9.70;;;;;;;5.27;69.24;101766.91;1691099;84;25902;-62
2022/02/12 01:09:25;;;;;;;19.45;9.23;;;;;;;5.28;68.99;101772.64;1691122;83;25799;-62
2022/02/12 01:11:52;;;;;;;14.33;8.90;;;;;;;5.30;68.79;101772.07;1691351;83;25670;-62
2022/02/12 01:14:18;;;;;;;12.40;7.58;;;;;;;5.34;69.03;101778.99;1690883;84;27501;-63
2022/02/12 01:16:46;;;;;;;12.68;7.08;;;;;;;5.34;69.14;101784.33;1690928;84;25890;-62
2022/02/12 01:19:12;;;;;;;11.03;5.85;;;;;;;5.41;69.28;101784.89;1691113;84;25857;-62
2022/02/12 01:21:40;;;;;;;9.83;5.78;;;;;;;5.42;68.87;101775.95;1691386;84;26139;-62
2022/02/12 01:24:07;;;;;;;10.58;5.60;;;;;;;5.43;68.48;101784.32;1690862;84;25813;-61
2022/02/12 01:26:34;;;;;;;7.05;4.95;;;;;;;5.44;68.31;101790.94;1691022;84;26761;-62
2022/02/12 01:29:04;;;;;;;9.63;5.22;;;;;;;5.45;68.20;101789.12;1690985;84;25752;-62
2022/02/12 01:31:32;;;;;;;9.03;5.20;;;;;;;5.45;68.38;101794.45;1691052;84;25867;-62
2022/02/12 01:34:00;;;;;;;8.45;5.62;;;;;;;5.41;68.92;101804.42;1690814;84;25793;-62
2022/02/12 01:36:27;;;;;;;7.90;4.65;;;;;;;5.37;69.00;101829.55;1691015;84;25490;-62
2022/02/12 01:38:55;;;;;;;7.40;4.12;;;;;;;5.28;69.44;101822.85;1690772;84;27468;-62
2022/02/12 01:41:22;;;;;;;5.53;3.00;;;;;;;5.24;68.52;101836.42;1690955;83;26497;-62
2022/02/12 01:43:50;;;;;;;2.83;2.12;;;;;;;5.16;67.53;101843.45;1691066;83;25762;-62
2022/02/12 01:46:17;;;;;;;7.92;2.08;;;;;;;5.07;67.23;101850.56;1696280;84;25789;-62
2022/02/12 01:48:45;;;;;;;4.03;2.40;;;;;;;4.99;66.73;101858.47;1695876;83;25822;-62
2022/02/12 01:51:12;;;;;;;6.75;2.52;;;;;;;4.93;66.69;101856.11;1699790;83;28301;-62
2022/02/12 01:53:39;;;;;;;7.17;2.17;;;;;;;4.84;66.33;101868.53;1699548;84;25734;-62
2022/02/12 01:56:07;;;;;;;5.50;2.45;;;;;;;4.76;66.17;101865.36;1700005;84;25829;-62
2022/02/12 01:58:34;;;;;;;5.83;3.15;;;;;;;4.72;66.09;101869.09;1699800;84;25859;-62
2022/02/12 02:01:02;;;;;;;3.65;2.83;;;;;;;4.66;66.05;101874.27;1698543;83;25869;-62
2022/02/12 02:03:28;;;;;;;3.05;2.17;;;;;;;4.58;66.02;101889.72;1698068;84;27489;-62
2022/02/12 02:05:55;;;;;;;8.15;3.10;;;;;;;4.51;66.09;101894.48;1698258;84;25632;-62
2022/02/12 02:08:23;;;;;;;3.80;3.00;;;;;;;4.47;66.19;101902.20;1697962;84;25904;-62
2022/02/12 02:10:52;;;;;;;8.03;3.40;;;;;;;4.45;66.42;101914.27;1698254;84;25777;-62
2022/02/12 02:13:27;;;;;;;5.58;2.42;;;;;;;4.35;66.43;101927.59;1693455;84;25509;-62
2022/02/12 02:15:55;;;;;;;6.25;2.80;;;;;;;4.29;66.49;101934.54;1692281;84;28248;-62
2022/02/12 02:18:23;;;;;;;4.60;2.92;;;;;;;4.25;66.14;101939.59;1692313;84;26438;-62
2022/02/12 02:20:52;;;;;;;2.98;2.50;;;;;;;4.21;66.08;101942.84;1695073;84;25730;-62
2022/02/12 02:23:19;;;;;;;3.92;2.70;;;;;;;4.21;65.89;101949.51;1698247;84;25857;-62
2022/02/12 02:25:46;;;;;;;5.03;3.20;;;;;;;4.23;65.73;101948.50;1694667;84;26454;-62
2022/02/12 02:28:13;;;;;;;4.45;2.75;;;;;;;4.23;65.60;101964.97;1693716;84;27514;-62
2022/02/12 02:30:42;;;;;;;5.65;2.62;;;;;;;4.20;65.45;101977.95;1695116;84;27349;-62
2022/02/12 02:33:10;;;;;;;7.03;3.25;;;;;;;4.17;65.26;101978.55;1698018;84;25715;-62
2022/02/12 02:35:37;;;;;;;6.37;3.30;;;;;;;4.17;65.33;101989.20;1698125;84;26201;-62
2022/02/12 02:38:07;;;;;;;6.25;3.02;;;;;;;4.14;65.08;101988.00;1698063;84;25845;-62
2022/02/12 02:40:34;;;;;;;4.28;2.60;;;;;;;4.14;65.12;102014.15;1698170;84;27547;-62
2022/02/12 02:43:01;;;;;;;6.55;3.27;;;;;;;4.12;65.22;102029.80;1693019;84;25540;-61
2022/02/12 02:45:30;;;;;;;5.62;3.42;;;;;;;4.02;65.31;102041.30;1698576;82;25687;-61
2022/02/12 02:48:02;;;;;;;7.92;2.92;;;;;;;3.96;65.84;102041.08;1709127;83;25774;-61
2022/02/12 02:56:08;;;;;;;5.72;3.20;;;;;;;3.91;66.76;102051.92;1692146;84;25761;-62
2022/02/12 02:58:39;;;;;;;2.65;2.12;;;;;;;3.87;66.98;102057.42;1692299;84;25758;-62
2022/02/12 03:01:11;;;;;;;4.58;2.90;;;;;;;3.85;67.47;102062.82;1695874;84;26477;-62
2022/02/12 03:03:40;;;;;;;5.62;2.90;;;;;;;3.85;67.14;102073.91;1698141;84;25756;-63
2022/02/12 03:06:08;;;;;;;6.62;2.72;;;;;;;3.84;67.30;102081.05;1698587;84;27467;-62
2022/02/12 03:08:35;;;;;;;3.52;2.77;;;;;;;3.78;67.04;102081.74;1698224;84;25679;-62
2022/02/12 03:11:04;;;;;;;5.80;2.65;;;;;;;3.80;67.47;102094.06;1698206;84;25519;-62
2022/02/12 03:13:32;;;;;;;4.55;2.40;;;;;;;3.78;67.69;102091.06;1686493;84;25880;-62
2022/02/12 03:15:59;;;;;;;6.53;3.00;;;;;;;3.73;68.55;102097.41;1686588;84;25806;-62
2022/02/12 03:18:27;;;;;;;4.60;3.12;;;;;;;3.64;68.32;102103.56;1684988;84;28171;-62
2022/02/12 03:20:54;;;;;;;3.47;2.87;;;;;;;3.58;69.35;102107.33;1684744;85;25754;-62
2022/02/12 03:23:22;;;;;;;5.45;3.30;;;;;;;3.54;68.55;102111.05;1684685;84;25810;-62
2022/02/12 03:25:49;;;;;;;3.75;2.98;;;;;;;3.50;68.92;102106.27;1682944;84;25805;-61
2022/02/12 03:28:16;;;;;;;4.45;3.17;;;;;;;3.47;69.27;102108.18;1685471;84;25800;-63
2022/02/12 03:30:46;;;;;;;7.95;3.30;;;;;;;3.37;69.68;102112.52;1685148;83;27537;-61
2022/02/12 03:33:14;;;;;;;8.33;4.05;;;;;;;3.26;70.28;102118.70;1685208;85;25856;-61
2022/02/12 03:35:42;;;;;;;8.78;4.90;;;;;;;3.07;70.75;102119.36;1686447;83;25801;-61
2022/02/12 03:38:15;;;;;;;10.00;5.15;;;;;;;3.00;70.89;102115.19;1698431;84;25757;-61
2022/02/12 03:40:46;;;;;;;7.47;4.30;;;;;;;2.97;71.04;102119.28;1699567;83;25802;-63
2022/02/12 03:43:13;;;;;;;5.97;3.22;;;;;;;2.91;71.21;102118.17;1700104;84;26940;-62
2022/02/12 03:45:41;;;;;;;7.50;3.60;;;;;;;2.84;72.49;102121.49;1693255;83;26103;-61
2022/02/12 03:48:10;;;;;;;6.25;4.05;;;;;;;2.80;71.67;102118.08;1688934;84;25738;-62
2022/02/12 03:50:38;;;;;;;7.62;4.47;;;;;;;2.82;72.20;102109.56;1696901;84;25841;-62
2022/02/12 03:53:07;;;;;;;10.10;3.25;;;;;;;2.82;72.86;102128.17;1696298;84;25774;-62
2022/02/12 03:55:39;;;;;;;5.17;3.47;;;;;;;2.81;72.93;102134.44;1696326;84;28205;-61
2022/02/12 03:58:11;;;;;;;4.08;3.27;;;;;;;2.84;73.01;102133.90;1695100;84;25781;-62
2022/02/12 04:00:41;;;;;;;5.90;3.43;;;;;;;2.84;73.58;102143.20;1695620;84;25750;-61
2022/02/12 04:03:08;;;;;;;4.85;3.22;;;;;;;2.85;74.01;102137.85;1695104;84;26604;-62
2022/02/12 04:05:36;;;;;;;19.27;8.80;;;;;;;2.85;73.51;102139.19;1695228;83;25885;-62
2022/02/12 04:08:05;;;;;;;7.00;4.17;;;;;;;2.90;73.61;102143.02;1696089;84;27465;-61
2022/02/12 04:10:32;;;;;;;7.45;3.65;;;;;;;2.92;73.50;102141.14;1696617;84;25813;-61
2022/02/12 04:12:59;;;;;;;7.40;3.70;;;;;;;2.93;73.30;102137.12;1696297;84;25504;-61
2022/02/12 04:15:26;;;;;;;5.75;3.10;;;;;;;2.96;73.13;102145.45;1696547;84;26471;-62
2022/02/12 04:17:54;;;;;;;4.10;3.08;;;;;;;2.99;73.11;102142.70;1696334;84;25709;-62
2022/02/12 04:20:23;;;;;;;5.70;3.55;;;;;;;3.02;73.02;102134.59;1686220;83;27479;-62
2022/02/12 04:22:51;;;;;;;6.47;3.62;;;;;;;3.08;72.70;102142.82;1685027;84;25877;-61
2022/02/12 04:25:21;;;;;;;3.40;3.05;;;;;;;3.13;72.65;102156.36;1685409;85;25881;-62
2022/02/12 04:27:48;;;;;;;7.12;3.20;;;;;;;3.12;72.67;102160.42;1691225;84;25833;-62
2022/02/12 04:30:16;;;;;;;6.55;2.92;;;;;;;3.10;72.36;102159.13;1696435;84;25753;-62
2022/02/12 04:32:44;;;;;;;7.95;3.20;;;;;;;3.12;72.47;102159.09;1696297;84;27467;-61
2022/02/12 04:35:13;;;;;;;8.40;3.15;;;;;;;3.08;72.48;102166.75;1696407;84;25782;-61
2022/02/12 04:37:41;;;;;;;11.38;5.47;;;;;;;3.05;72.64;102168.20;1690747;84;25759;-62
2022/02/12 04:40:10;;;;;;;31.00;14.13;;;;;;;3.00;72.45;102173.68;1685124;83;25825;-61
2022/02/12 04:42:37;;;;;;;29.05;15.70;;;;;;;2.92;72.87;102188.55;1684992;85;25667;-61
2022/02/12 04:45:07;;;;;;;24.57;12.07;;;;;;;2.87;72.84;102191.80;1685314;83;27479;-62
2022/02/12 04:47:36;;;;;;;16.27;8.93;;;;;;;2.89;72.45;102188.64;1685074;85;25828;-61
2022/02/12 04:50:06;;;;;;;8.63;4.78;;;;;;;2.87;72.67;102193.61;1693030;84;25894;-61
2022/02/12 04:52:33;;;;;;;7.42;4.42;;;;;;;2.87;72.45;102195.79;1698348;84;25781;-61
2022/02/12 04:55:01;;;;;;;14.95;8.40;;;;;;;2.85;72.44;102206.96;1698096;84;25812;-62
2022/02/12 04:57:28;;;;;;;14.23;9.13;;;;;;;2.81;72.58;102207.97;1697982;82;27476;-61
2022/02/12 04:59:54;;;;;;;9.50;5.12;;;;;;;2.78;72.76;102212.08;1698394;84;26064;-61
2022/02/12 05:02:21;;;;;;;9.55;5.22;;;;;;;2.77;72.72;102212.98;1698562;84;25920;-61
2022/02/12 05:04:48;;;;;;;9.93;4.97;;;;;;;2.77;72.61;102219.16;1698157;84;25815;-62
2022/02/12 05:07:15;;;;;;;10.53;5.25;;;;;;;2.79;72.59;102211.12;1697294;83;25709;-62
2022/02/12 05:09:42;;;;;;;11.85;4.22;;;;;;;2.79;72.36;102221.31;1692419;84;28182;-61
2022/02/12 05:12:09;;;;;;;21.02;7.75;;;;;;;2.84;72.09;102222.94;1692347;84;25690;-61
2022/02/12 05:14:35;;;;;;;29.45;12.05;;;;;;;2.86;71.85;102218.00;1692506;84;26159;-62
2022/02/12 05:17:04;;;;;;;26.25;9.75;;;;;;;2.93;71.85;102223.96;1692400;84;25812;-62
2022/02/12 05:19:31;;;;;;;23.05;9.63;;;;;;;2.93;71.48;102222.19;1693198;84;25971;-62
2022/02/12 05:21:59;;;;;;;18.48;7.75;;;;;;;2.95;71.33;102221.69;1698490;84;27447;-62
2022/02/12 05:24:26;;;;;;;11.08;6.08;;;;;;;2.97;71.01;102225.14;1696746;84;25829;-61
2022/02/12 05:26:53;;;;;;;11.78;4.95;;;;;;;3.02;70.83;102225.46;1693842;84;25731;-61
2022/02/12 05:29:21;;;;;;;8.70;4.25;;;;;;;3.07;70.62;102236.80;1693731;84;25855;-62
2022/02/12 05:31:48;;;;;;;5.62;3.87;;;;;;;3.10;70.39;102244.20;1695022;84;26005;-62
2022/02/12 05:34:14;;;;;;;8.95;4.35;;;;;;;3.11;69.92;102252.59;1698278;83;27473;-62
2022/02/12 05:36:41;;;;;;;5.33;3.00;;;;;;;3.14;69.55;102266.24;1698139;84;25718;-61
2022/02/12 05:39:09;;;;;;;4.60;2.87;;;;;;;3.12;68.62;102264.98;1698092;84;25810;-62
2022/02/12 05:41:37;;;;;;;5.85;2.58;;;;;;;3.10;68.06;102269.95;1698214;84;26486;-62
2022/02/12 05:44:05;;;;;;;5.33;3.37;;;;;;;3.15;67.65;102277.77;1696116;84;26259;-61
2022/02/12 05:46:32;;;;;;;4.03;2.08;;;;;;;3.13;66.16;102284.48;1685721;84;28161;-62
2022/02/12 05:48:59;;;;;;;3.40;2.27;;;;;;;3.11;65.65;102288.97;1684038;85;25622;-62
2022/02/12 05:51:30;;;;;;;5.00;2.70;;;;;;;3.11;65.17;102295.62;1683929;85;25693;-62
2022/02/12 05:53:54;;;;;;;4.22;2.10;;;;;;;3.08;64.54;102300.58;1683456;85;25828;-62
2022/02/12 05:56:21;;;;;;;3.33;1.90;;;;;;;3.06;64.22;102303.75;1665034;85;25817;-62
2022/02/12 05:58:48;;;;;;;5.90;2.77;;;;;;;3.06;63.39;102309.06;1646550;86;27509;-62
2022/02/12 06:01:15;;;;;;;5.72;2.35;;;;;;;3.06;63.10;102311.72;1646574;86;25739;-61
2022/02/12 06:03:41;;;;;;;3.05;2.30;;;;;;;3.07;63.36;102310.80;1646973;86;25847;-61
2022/02/12 06:06:08;;;;;;;4.08;2.60;;;;;;;3.08;62.94;102316.98;1654545;86;26760;-62
2022/02/12 06:08:36;;;;;;;4.05;2.45;;;;;;;3.10;62.03;102321.32;1654934;86;25832;-62
2022/02/12 06:11:04;;;;;;;6.03;3.50;;;;;;;3.10;62.40;102320.47;1654596;86;27436;-62
2022/02/12 06:13:31;;;;;;;4.97;2.40;;;;;;;3.08;62.44;102328.95;1654455;86;25768;-62
2022/02/12 06:15:58;;;;;;;10.95;5.42;;;;;;;3.07;62.46;102338.73;1655713;86;25836;-61
2022/02/12 06:18:24;;;;;;;5.65;2.42;;;;;;;3.06;61.46;102347.62;1656344;86;26448;-61
2022/02/12 06:20:51;;;;;;;5.37;2.50;;;;;;;3.04;61.44;102344.12;1656076;86;25767;-62
2022/02/12 06:23:22;;;;;;;4.72;2.60;;;;;;;3.06;61.09;102341.41;1656254;86;27469;-62
2022/02/12 06:25:49;;;;;;;6.30;2.52;;;;;;;3.07;61.22;102340.05;1672077;85;25812;-62
2022/02/12 06:28:16;;;;;;;3.98;2.30;;;;;;;3.10;60.58;102344.40;1646967;87;25841;-62
2022/02/12 06:30:43;;;;;;;6.08;2.05;;;;;;;3.15;60.97;102345.11;1646528;86;25804;-62
2022/02/12 06:33:09;;;;;;;3.12;1.62;;;;;;;3.17;61.15;102347.27;1646806;86;25810;-62
2022/02/12 06:35:36;;;;;;;5.15;2.22;;;;;;;3.23;60.64;102349.72;1652033;86;27642;-61
2022/02/12 06:38:03;;;;;;;5.72;2.20;;;;;;;3.25;60.63;102361.19;1655718;86;25780;-62
2022/02/12 06:40:30;;;;;;;3.30;1.77;;;;;;;3.26;59.64;102367.39;1656030;86;25762;-62
2022/02/12 06:42:57;;;;;;;3.52;1.80;;;;;;;3.27;59.86;102379.77;1656075;86;25827;-61
2022/02/12 06:45:24;;;;;;;7.87;2.85;;;;;;;3.26;59.96;102376.70;1666496;84;25808;-61
2022/02/12 06:47:50;;;;;;;4.62;2.20;;;;;;;3.28;60.20;102384.14;1689524;84;27492;-61
2022/02/12 06:50:18;;;;;;;5.47;2.50;;;;;;;3.30;60.53;102392.95;1693661;82;25836;-62
2022/02/12 06:52:44;;;;;;;4.83;2.37;;;;;;;3.32;60.26;102390.27;1722007;83;25807;-62
2022/02/12 06:55:11;;;;;;;4.50;2.30;;;;;;;3.31;60.21;102399.16;1721900;83;25804;-62
2022/02/12 06:57:39;;;;;;;4.10;2.30;;;;;;;3.25;60.07;102395.76;1702632;83;25840;-61
2022/02/12 07:00:08;;;;;;;6.47;2.33;;;;;;;3.19;59.17;102401.73;1692255;83;28354;-61
2022/02/12 07:02:35;;;;;;;8.73;2.85;;;;;;;3.16;59.48;102407.16;1692270;84;25709;-61
2022/02/12 07:05:04;;;;;;;18.80;8.25;;;;;;;3.15;59.58;102417.38;1693806;84;25770;-62
2022/02/12 07:07:31;;;;;;;8.50;3.52;;;;;;;3.12;59.78;102418.36;1697967;84;25828;-61
2022/02/12 07:09:58;;;;;;;10.45;2.80;;;;;;;3.15;59.89;102417.38;1698217;84;25852;-61
2022/02/12 07:12:25;;;;;;;7.08;3.00;;;;;;;3.19;60.19;102422.56;1698123;83;27512;-62
2022/02/12 07:14:52;;;;;;;5.42;3.12;;;;;;;3.21;60.26;102424.72;1696934;84;25898;-62
2022/02/12 07:17:19;;;;;;;8.50;3.02;;;;;;;3.28;60.54;102429.37;1692669;84;25629;-62
2022/02/12 07:19:46;;;;;;;17.20;5.92;;;;;;;3.33;60.32;102436.76;1692477;84;25863;-62
2022/02/12 07:22:13;;;;;;;9.03;4.30;;;;;;;3.37;60.58;102438.39;1692385;83;25862;-62
2022/02/12 07:24:39;;;;;;;6.03;2.80;;;;;;;3.41;60.36;102435.17;1689542;84;27556;-62
2022/02/12 07:27:06;;;;;;;12.88;4.70;;;;;;;3.57;60.68;102436.45;1688029;84;25931;-62
2022/02/12 07:29:33;;;;;;;10.75;3.70;;;;;;;3.73;60.74;102440.78;1698454;84;25747;-62
2022/02/12 07:32:00;;;;;;;11.57;4.15;;;;;;;3.80;59.87;102439.27;1696056;84;25784;-61
2022/02/12 07:34:26;;;;;;;8.33;3.50;;;;;;;3.82;59.96;102447.61;1687658;83;25837;-62
2022/02/12 07:36:54;;;;;;;7.00;3.40;;;;;;;3.81;59.37;102445.01;1691029;84;27492;-62
2022/02/12 07:39:21;;;;;;;8.98;4.20;;;;;;;3.79;59.63;102453.02;1691499;84;26017;-62
2022/02/12 07:41:48;;;;;;;6.20;3.45;;;;;;;3.84;59.75;102452.87;1688463;84;25831;-61
2022/02/12 07:44:15;;;;;;;11.30;4.22;;;;;;;3.76;59.47;102459.33;1690461;84;25815;-62
2022/02/12 07:46:41;;;;;;;10.68;3.55;;;;;;;3.73;60.08;102456.75;1692558;84;27371;-62
2022/02/12 07:49:08;;;;;;;8.30;3.20;;;;;;;3.76;60.03;102470.45;1685143;84;27550;-62
2022/02/12 07:51:36;;;;;;;8.63;3.25;;;;;;;3.74;59.54;102458.97;1676865;84;25845;-62
2022/02/12 07:54:03;;;;;;;5.83;3.05;;;;;;;3.83;60.00;102448.02;1660850;85;25824;-62
2022/02/12 07:56:31;;;;;;;5.92;3.20;;;;;;;3.93;60.28;102460.55;1661146;86;25792;-62
2022/02/12 07:58:58;;;;;;;9.45;3.30;;;;;;;4.00;60.40;102455.42;1661611;86;25774;-61
2022/02/12 08:01:25;;;;;;;6.40;3.33;;;;;;;4.06;60.36;102455.23;1662912;85;28205;-62
2022/02/12 08:03:52;;;;;;;10.20;3.22;;;;;;;4.15;59.38;102462.50;1666051;86;25668;-62
2022/02/12 08:09:04;;;;;;;5.12;3.25;;;;;;;4.27;59.96;102478.52;1658346;86;26584;-63
2022/02/12 08:11:35;;;;;;;5.17;2.90;;;;;;;4.43;59.90;102476.20;1664672;85;25738;-62
2022/02/12 08:14:00;;;;;;;8.98;3.35;;;;;;;4.56;58.30;102490.81;1629518;86;28202;-63
2022/02/12 08:16:27;;;;;;;7.40;4.00;;;;;;;4.58;57.85;102492.08;1659738;86;25822;-62
2022/02/12 08:18:53;;;;;;;8.18;3.22;;;;;;;4.67;58.04;102503.30;1658955;86;25845;-62
2022/02/12 08:21:20;;;;;;;11.50;3.33;;;;;;;4.78;57.80;102481.57;1664058;86;25880;-62
2022/02/12 08:23:47;;;;;;;8.18;4.10;;;;;;;4.89;56.77;102493.16;1662754;86;25780;-62
2022/02/12 08:26:14;;;;;;;15.05;5.40;;;;;;;5.07;57.69;102497.41;1661467;86;27563;-62
2022/02/12 08:28:42;;;;;;;7.45;3.60;;;;;;;5.28;57.99;102502.41;1651576;86;25899;-63
2022/02/12 08:31:09;;;;;;;7.05;3.58;;;;;;;5.37;56.52;102499.84;1664148;85;25873;-62
2022/02/12 08:33:36;;;;;;;6.60;3.05;;;;;;;5.52;56.28;102514.39;1666040;84;26508;-61
2022/02/12 08:36:04;;;;;;;5.60;3.33;;;;;;;5.48;54.96;102510.97;1662661;86;25802;-62
2022/02/12 08:38:31;;;;;;;6.55;3.62;;;;;;;5.55;54.26;102502.27;1657310;86;28251;-62
2022/02/12 08:40:58;;;;;;;8.33;3.10;;;;;;;5.65;53.55;102503.61;1657068;86;25809;-62
2022/02/12 08:43:25;;;;;;;10.08;3.75;;;;;;;5.77;52.75;102509.80;1660128;86;25754;-62
2022/02/12 08:45:52;;;;;;;9.10;3.40;;;;;;;5.93;53.09;102518.07;1663913;86;25868;-62
2022/02/12 08:48:19;;;;;;;8.10;3.55;;;;;;;5.99;52.80;102514.73;1668436;85;25900;-62
2022/02/12 08:50:45;;;;;;;7.60;3.60;;;;;;;6.10;51.87;102525.40;1654888;82;27408;-63
2022/02/12 08:53:12;;;;;;;26.02;14.38;;;;;;;6.24;51.49;102526.16;1659715;86;25680;-62
2022/02/12 08:55:39;;;;;;;16.57;7.45;;;;;;;6.39;51.76;102528.66;1655445;86;25812;-62
2022/02/12 08:58:07;;;;;;;5.85;3.20;;;;;;;6.36;48.98;102527.47;1656863;86;25832;-62
2022/02/12 09:00:34;;;;;;;9.43;3.45;;;;;;;6.51;48.76;102529.06;1655449;86;25909;-62
2022/02/12 09:03:01;;;;;;;10.35;2.65;;;;;;;6.73;49.66;102533.86;1661228;85;27460;-62
2022/02/12 09:05:28;;;;;;;8.83;3.15;;;;;;;6.92;47.91;102536.20;1661558;86;25924;-62
2022/02/12 09:07:55;;;;;;;8.15;3.10;;;;;;;6.97;47.07;102532.84;1664381;85;25753;-62
2022/02/12 09:10:22;;;;;;;6.83;3.00;;;;;;;7.10;47.10;102552.77;1664839;86;25877;-63
2022/02/12 09:12:48;;;;;;;7.90;3.27;;;;;;;7.26;46.40;102542.20;1662896;86;25729;-62
2022/02/12 09:15:15;;;;;;;11.70;4.50;;;;;;;7.46;46.97;102540.41;1666777;84;28720;-63
2022/02/12 09:17:42;;;;;;;7.47;2.87;;;;;;;7.81;46.24;102533.38;1668390;85;25741;-63
2022/02/12 09:20:11;;;;;;;11.33;3.95;;;;;;;8.28;44.45;102542.67;1668600;85;25785;-63
2022/02/12 09:22:38;;;;;;;9.00;3.50;;;;;;;8.64;43.92;102544.94;1661159;84;25818;-64
2022/02/12 09:25:08;;;;;;;6.92;3.08;;;;;;;9.13;43.90;102541.91;1661311;86;25804;-64
2022/02/12 09:27:36;;;;;;;6.25;2.87;;;;;;;9.74;43.65;102549.74;1653729;86;28168;-63
2022/02/12 09:30:05;;;;;;;6.87;3.50;;;;;;;10.21;40.94;102542.56;1660489;86;25785;-62
2022/02/12 09:32:32;;;;;;;10.15;3.35;;;;;;;10.10;39.28;102547.70;1665185;86;25872;-63
2022/02/12 09:34:59;;;;;;;9.20;3.80;;;;;;;10.33;40.70;102551.27;1667498;85;25783;-63
2022/02/12 09:37:26;;;;;;;6.50;3.12;;;;;;;10.13;41.91;102543.00;1668688;84;25743;-64
2022/02/12 09:39:53;;;;;;;9.63;3.70;;;;;;;9.65;39.75;102548.92;1665216;86;27833;-63
2022/02/12 09:42:21;;;;;;;7.42;2.77;;;;;;;9.19;41.85;102561.25;1660158;86;25850;-63
2022/02/12 09:44:47;;;;;;;10.38;3.20;;;;;;;8.79;42.58;102571.91;1668437;84;25797;-63
2022/02/12 09:47:45;;;;;;;10.35;2.92;;;;;;;8.40;43.15;102573.36;1680722;84;25880;-63
2022/02/12 09:50:18;;;;;;;7.50;2.98;;;;;;;8.19;44.21;102576.65;1673045;84;25764;-63
2022/02/12 09:52:53;;;;;;;8.20;3.15;;;;;;;8.00;43.67;102571.34;1690293;83;27533;-63
2022/02/12 09:55:23;;;;;;;9.50;3.22;;;;;;;7.91;43.81;102577.15;1693930;83;25686;-63
2022/02/12 09:57:50;;;;;;;10.65;5.85;;;;;;;7.82;44.23;102571.29;1700137;83;25781;-63
2022/02/12 10:00:19;;;;;;;8.83;2.85;;;;;;;7.77;43.89;102566.61;1688398;84;25856;-63
2022/02/12 10:02:47;;;;;;;7.03;2.60;;;;;;;7.76;43.96;102570.23;1690539;84;25989;-63
2022/02/12 10:05:29;;;;;;;8.00;3.05;;;;;;;8.73;43.68;102575.77;1695397;82;27492;-63
2022/02/12 10:08:08;;;;;;;10.80;3.08;;;;;;;9.24;42.97;102573.09;1694767;84;25823;-63
2022/02/12 10:10:37;;;;;;;5.05;2.80;;;;;;;9.13;41.13;102564.73;1697816;83;25715;-62
2022/02/12 10:13:30;;;;;;;8.25;3.33;;;;;;;8.75;41.94;102572.05;1698307;84;25498;-62
2022/02/12 10:16:01;;;;;;;17.15;3.58;;;;;;;8.93;42.61;102573.38;1696575;83;25875;-63
2022/02/12 10:18:40;;;;;;;11.15;3.40;;;;;;;9.22;41.89;102572.30;1696272;83;28199;-63
2022/02/12 10:21:09;;;;;;;8.53;4.45;;;;;;;9.50;41.87;102578.84;1690060;83;25804;-61
2022/02/12 10:23:42;;;;;;;9.65;2.92;;;;;;;9.55;42.19;102578.98;1696221;83;25889;-62
2022/02/12 10:26:16;;;;;;;7.43;2.73;;;;;;;9.45;42.12;102576.91;1695691;83;26589;-62
2022/02/12 10:28:45;;;;;;;;;;;;;;;9.97;40.97;102582.50;1698704;83;25937;-61
2022/02/12 10:31:13;;;;;;;5.92;3.67;;;;;;;10.93;39.80;102571.03;1692399;83;27466;-64
2022/02/12 10:33:47;;;;;;;9.00;3.25;;;;;;;11.48;38.58;102579.32;1695743;84;25788;-61
2022/02/12 10:36:18;;;;;;;8.05;3.45;;;;;;;12.32;38.03;102577.48;1698728;84;25680;-64
2022/02/12 10:38:50;;;;;;;4.60;2.50;;;;;;;13.38;36.79;102572.91;1692379;84;25833;-61
2022/02/12 10:41:20;;;;;;;5.37;2.50;;;;;;;13.80;35.54;102559.11;1689858;84;25858;-61
2022/02/12 10:43:50;;;;;;;9.23;3.12;;;;;;;13.12;35.17;102573.82;1695074;83;28160;-61
2022/02/12 10:46:18;;;;;;;6.92;2.77;;;;;;;12.34;34.73;102576.02;1691946;83;25848;-61
2022/02/12 10:48:50;;;;;;;6.72;2.00;;;;;;;11.67;35.88;102581.69;1696510;83;25753;-63
2022/02/12 10:51:18;;;;;;;3.72;2.20;;;;;;;11.18;36.25;102589.71;1693086;83;26666;-61
2022/02/12 10:54:06;;;;;;;6.20;2.25;;;;;;;10.85;37.00;102587.29;1685001;84;25741;-62
2022/02/12 10:56:53;;;;;;;10.85;2.95;;;;;;;10.37;37.45;102592.77;1685147;83;27568;-63
2022/02/12 10:59:24;;;;;;;8.85;2.87;;;;;;;9.91;38.13;102596.30;1680937;83;25864;-62
2022/02/12 11:01:52;;;;;;;6.67;1.90;;;;;;;9.36;38.50;102595.72;1696937;83;25822;-62
2022/02/12 11:04:20;;;;;;;7.83;2.62;;;;;;;8.91;39.18;102596.77;1673086;84;26710;-62
2022/02/12 11:06:48;;;;;;;7.00;2.77;;;;;;;8.64;39.62;102602.62;1659821;84;25817;-63
2022/02/12 11:09:18;;;;;;;7.15;2.85;;;;;;;9.14;40.30;102609.44;1696111;83;27542;-64
2022/02/12 11:11:46;;;;;;;13.40;3.85;;;;;;;9.44;40.12;102599.34;1682168;84;26333;-63
2022/02/12 11:14:17;;;;;;;9.48;3.08;;;;;;;9.30;39.54;102595.57;1703685;83;25789;-63
2022/02/12 11:16:45;;;;;;;12.33;3.25;;;;;;;9.06;39.69;102601.77;1691265;83;25773;-63
2022/02/12 11:19:13;;;;;;;7.55;2.72;;;;;;;8.87;39.85;102607.25;1691764;83;26010;-63
2022/02/12 11:21:41;;;;;;;8.70;2.90;;;;;;;8.95;40.70;102607.72;1691213;84;27462;-63
2022/02/12 11:24:08;;;;;;;7.83;2.70;;;;;;;9.33;40.52;102610.19;1696303;83;25762;-63
2022/02/12 11:26:42;;;;;;;8.35;2.58;;;;;;;10.25;38.77;102598.39;1690943;83;25736;-62
2022/02/12 11:29:33;;;;;;;4.47;1.90;;;;;;;10.28;37.47;102596.39;1695549;83;25801;-64
2022/02/12 11:32:22;;;;;;;7.62;2.72;;;;;;;9.96;37.58;102608.53;1690904;83;26058;-64
2022/02/12 11:35:09;;;;;;;5.58;2.92;;;;;;;9.58;38.59;102603.96;1679273;84;27499;-62
2022/02/12 11:37:38;;;;;;;8.88;2.92;;;;;;;9.18;39.18;102618.59;1697689;84;26436;-61
2022/02/12 11:40:24;;;;;;;7.55;2.52;;;;;;;8.88;39.13;102621.07;1698272;84;25806;-63
2022/02/12 11:43:06;;;;;;;5.47;2.08;;;;;;;8.51;38.99;102629.20;1697422;83;26645;-62